createdAt,value
2022-09-20T00:00:41.986Z,22.48
2022-09-20T00:03:15.089Z,22.47
2022-09-20T00:05:48.105Z,22.46
2022-09-20T00:08:21.194Z,22.46
2022-09-20T00:10:54.064Z,22.46
2022-09-20T00:13:27.156Z,22.45
2022-09-20T00:16:00.115Z,22.45
2022-09-20T00:18:33.225Z,22.45
2022-09-20T00:21:05.885Z,22.44
2022-09-20T00:23:39.176Z,22.44
2022-09-20T00:26:12.125Z,22.44
2022-09-20T00:28:45.189Z,22.43
2022-09-20T00:31:17.996Z,22.43
2022-09-20T00:33:51.189Z,22.42
2022-09-20T00:36:24.122Z,22.42
2022-09-20T00:38:57.182Z,22.41
2022-09-20T00:41:30.166Z,22.41
2022-09-20T00:44:03.233Z,22.41
2022-09-20T00:46:36.200Z,22.40
2022-09-20T00:49:09.117Z,22.40
2022-09-20T00:51:42.219Z,22.39
2022-09-20T00:54:19.986Z,22.38
2022-09-20T00:56:48.215Z,22.38
2022-09-20T00:59:21.217Z,22.38
2022-09-20T01:01:54.267Z,22.37
2022-09-20T01:04:27.198Z,22.37
2022-09-20T01:07:00.180Z,22.37
2022-09-20T01:09:33.258Z,22.36
2022-09-20T01:12:06.233Z,22.36
2022-09-20T01:14:39.220Z,22.36
2022-09-20T01:17:12.157Z,22.35
2022-09-20T01:19:45.198Z,22.35
2022-09-20T01:22:18.150Z,22.35
2022-09-20T01:24:51.159Z,22.34
2022-09-20T01:27:24.293Z,22.34
2022-09-20T01:29:57.257Z,22.34
2022-09-20T01:32:30.209Z,22.34
2022-09-20T01:35:03.249Z,22.33
2022-09-20T01:37:36.302Z,22.33
2022-09-20T01:40:09.369Z,22.33
2022-09-20T01:42:42.267Z,22.32
2022-09-20T01:45:15.272Z,22.32
2022-09-20T01:47:48.285Z,22.31
2022-09-20T01:50:21.221Z,22.31
2022-09-20T01:52:54.350Z,22.31
2022-09-20T01:55:27.320Z,22.30
2022-09-20T01:58:00.439Z,22.30
2022-09-20T02:00:34.236Z,22.30
2022-09-20T02:03:07.291Z,22.29
2022-09-20T02:05:40.211Z,22.29
2022-09-20T02:08:13.252Z,22.29
2022-09-20T02:10:46.401Z,22.28
2022-09-20T02:13:19.282Z,22.28
2022-09-20T02:15:52.316Z,22.28
2022-09-20T02:18:25.232Z,22.27
2022-09-20T02:20:58.335Z,22.27
2022-09-20T02:23:31.352Z,22.27
2022-09-20T02:26:05.345Z,22.26
2022-09-20T02:28:38.398Z,22.26
2022-09-20T02:31:11.410Z,22.25
2022-09-20T02:33:44.288Z,22.25
2022-09-20T02:36:17.299Z,22.24
2022-09-20T02:38:50.228Z,22.24
2022-09-20T02:41:23.343Z,22.23
2022-09-20T02:43:56.411Z,22.23
2022-09-20T02:46:29.331Z,22.23
2022-09-20T02:49:02.416Z,22.22
2022-09-20T02:51:35.341Z,22.22
2022-09-20T02:54:08.379Z,22.21
2022-09-20T02:56:41.386Z,22.21
2022-09-20T02:59:14.320Z,22.21
2022-09-20T03:01:47.365Z,22.20
2022-09-20T03:04:20.392Z,22.20
2022-09-20T03:06:53.300Z,22.19
2022-09-20T03:09:30.257Z,22.19
2022-09-20T03:12:03.341Z,22.18
2022-09-20T03:14:36.405Z,22.18
2022-09-20T03:17:09.427Z,22.17
2022-09-20T03:19:42.446Z,22.17
2022-09-20T03:22:15.420Z,22.16
2022-09-20T03:24:48.366Z,22.15
2022-09-20T03:27:21.419Z,22.15
2022-09-20T03:29:54.373Z,22.14
2022-09-20T03:32:27.226Z,22.13
2022-09-20T03:35:00.411Z,22.12
2022-09-20T03:37:33.435Z,22.12
2022-09-20T03:40:06.514Z,22.11
2022-09-20T03:42:39.458Z,22.11
2022-09-20T03:45:12.429Z,22.10
2022-09-20T03:47:45.478Z,22.09
2022-09-20T03:50:18.327Z,22.09
2022-09-20T03:52:51.457Z,22.08
2022-09-20T03:55:24.459Z,22.08
2022-09-20T03:57:57.404Z,22.07
2022-09-20T04:00:30.414Z,22.06
2022-09-20T04:03:03.419Z,22.06
2022-09-20T04:05:36.453Z,22.05
2022-09-20T04:08:09.403Z,22.04
2022-09-20T04:10:42.260Z,22.04
2022-09-20T04:13:15.431Z,22.04
2022-09-20T04:15:48.499Z,22.03
2022-09-20T04:18:21.562Z,22.03
2022-09-20T04:20:54.475Z,22.02
2022-09-20T04:23:27.530Z,22.02
2022-09-20T04:26:00.459Z,22.01
2022-09-20T04:28:33.346Z,22.01
2022-09-20T04:31:06.489Z,22.00
2022-09-20T04:33:42.453Z,22.00
2022-09-20T04:36:15.486Z,22.00
2022-09-20T04:38:48.581Z,21.99
2022-09-20T04:41:21.434Z,21.99
2022-09-20T04:43:54.589Z,21.98
2022-09-20T04:46:27.565Z,21.97
2022-09-20T04:49:00.528Z,21.97
2022-09-20T04:51:33.417Z,21.96
2022-09-20T04:54:06.497Z,21.96
2022-09-20T04:56:39.526Z,21.95
2022-09-20T04:59:12.486Z,21.95
2022-09-20T05:01:45.488Z,21.94
2022-09-20T05:04:18.503Z,21.94
2022-09-20T05:06:51.554Z,21.93
2022-09-20T05:09:24.518Z,21.93
2022-09-20T05:11:57.551Z,21.93
2022-09-20T05:17:03.638Z,21.92
2022-09-20T05:19:36.413Z,21.92
2022-09-20T05:22:09.220Z,21.93
2022-09-20T05:24:42.399Z,21.93
2022-09-20T05:27:15.307Z,21.93
2022-09-20T05:29:48.426Z,21.93
2022-09-20T05:32:21.356Z,21.92
2022-09-20T05:34:54.593Z,21.92
2022-09-20T05:37:27.236Z,21.92
2022-09-20T05:40:00.376Z,21.92
2022-09-20T05:42:33.267Z,21.92
2022-09-20T05:45:06.501Z,21.93
2022-09-20T05:47:39.582Z,21.94
2022-09-20T05:50:12.286Z,21.96
2022-09-20T05:52:45.433Z,21.97
2022-09-20T05:55:18.311Z,21.98
2022-09-20T05:57:51.423Z,22.00
2022-09-20T06:00:24.314Z,22.01
2022-09-20T06:02:57.294Z,22.03
2022-09-20T06:05:30.291Z,22.05
2022-09-20T06:08:03.334Z,22.07
2022-09-20T06:10:36.442Z,22.08
2022-09-20T06:13:09.316Z,22.10
2022-09-20T06:15:42.523Z,22.11
2022-09-20T06:18:15.332Z,22.13
2022-09-20T06:20:48.430Z,22.15
2022-09-20T06:23:21.476Z,22.17
2022-09-20T06:25:54.327Z,22.18
2022-09-20T06:28:27.376Z,22.20
2022-09-20T06:31:00.418Z,22.22
2022-09-20T06:33:33.345Z,22.24
2022-09-20T06:36:06.489Z,22.25
2022-09-20T06:38:39.414Z,22.27
2022-09-20T06:41:12.421Z,22.28
2022-09-20T06:43:45.415Z,22.29
2022-09-20T06:46:18.525Z,22.30
2022-09-20T06:48:51.371Z,22.31
2022-09-20T06:51:38.462Z,22.32
2022-09-20T06:54:11.441Z,22.34
2022-09-20T06:56:44.721Z,22.35
2022-09-20T06:59:17.408Z,22.36
2022-09-20T07:01:50.553Z,22.37
2022-09-20T07:04:23.751Z,22.38
2022-09-20T07:06:56.386Z,22.39
2022-09-20T07:09:29.684Z,22.40
2022-09-20T07:12:02.763Z,22.41
2022-09-20T07:14:35.700Z,22.43
2022-09-20T07:17:08.569Z,22.45
2022-09-20T07:19:41.569Z,22.46
2022-09-20T07:22:14.699Z,22.48
2022-09-20T07:24:47.813Z,22.49
2022-09-20T07:27:20.742Z,22.50
2022-09-20T07:29:53.726Z,22.51
2022-09-20T07:32:26.438Z,22.52
2022-09-20T07:34:59.726Z,22.53
2022-09-20T07:37:36.889Z,22.54
2022-09-20T07:40:05.627Z,22.56
2022-09-20T07:42:38.569Z,22.57
2022-09-20T07:45:11.787Z,22.58
2022-09-20T07:47:44.495Z,22.59
2022-09-20T07:50:17.453Z,22.60
2022-09-20T07:52:50.674Z,22.61
2022-09-20T07:55:23.654Z,22.62
2022-09-20T07:57:56.761Z,22.63
2022-09-20T08:00:31.583Z,22.63
2022-09-20T08:03:04.738Z,22.64
2022-09-20T08:05:37.775Z,22.65
2022-09-20T08:08:10.470Z,22.67
2022-09-20T08:10:43.856Z,22.68
2022-09-20T08:15:49.784Z,22.70
2022-09-20T08:18:22.611Z,22.71
2022-09-20T08:20:55.812Z,22.72
2022-09-20T08:23:28.500Z,22.73
2022-09-20T08:26:01.504Z,22.74
2022-09-20T08:28:34.688Z,22.75
2022-09-20T08:31:07.931Z,22.76
2022-09-20T08:33:40.874Z,22.76
2022-09-20T08:36:13.804Z,22.77
2022-09-20T08:41:19.663Z,22.78
2022-09-20T08:43:52.568Z,22.78
2022-09-20T08:46:25.786Z,22.78
2022-09-20T08:48:58.641Z,22.79
2022-09-20T08:51:31.537Z,22.79
2022-09-20T08:54:04.534Z,22.80
2022-09-20T08:56:37.792Z,22.80
2022-09-20T08:59:10.907Z,22.81
2022-09-20T09:01:43.867Z,22.81
2022-09-20T09:04:16.935Z,22.81
2022-09-20T09:06:49.674Z,22.81
2022-09-20T09:09:22.631Z,22.82
2022-09-20T09:11:55.558Z,22.82
2022-09-20T09:14:28.592Z,22.83
2022-09-20T09:17:01.650Z,22.84
2022-09-20T09:19:34.967Z,22.85
2022-09-20T09:22:07.680Z,22.86
2022-09-20T09:24:40.762Z,22.87
2022-09-20T09:27:13.695Z,22.88
2022-09-20T09:29:46.788Z,22.88
2022-09-20T09:32:19.640Z,22.88
2022-09-20T09:34:52.779Z,22.89
2022-09-20T09:37:28.650Z,22.90
2022-09-20T09:39:58.980Z,22.90
2022-09-20T09:42:31.889Z,22.91
2022-09-20T09:45:04.908Z,22.92
2022-09-20T09:47:37.703Z,22.93
2022-09-20T09:50:10.712Z,22.93
2022-09-20T09:52:43.822Z,22.93
2022-09-20T09:55:16.623Z,22.94
2022-09-20T09:57:49.940Z,22.94
2022-09-20T10:00:23.049Z,22.94
2022-09-20T10:02:55.647Z,22.94
2022-09-20T10:05:31.570Z,22.95
2022-09-20T10:08:04.635Z,22.95
2022-09-20T10:10:37.952Z,22.94
2022-09-20T10:13:10.693Z,22.94
2022-09-20T10:15:43.667Z,22.93
2022-09-20T10:18:16.944Z,22.92
2022-09-20T10:20:50.108Z,22.92
2022-09-20T10:23:51.395Z,22.91
2022-09-20T10:25:56.708Z,22.90
2022-09-20T10:28:30.009Z,22.88
2022-09-20T10:31:05.865Z,22.81
2022-09-20T10:33:38.735Z,22.63
2022-09-20T10:36:11.724Z,22.50
2022-09-20T10:38:44.803Z,22.41
2022-09-20T10:41:17.701Z,22.36
2022-09-20T10:43:50.705Z,22.34
2022-09-20T10:46:32.804Z,22.34
2022-09-20T10:48:56.709Z,22.36
2022-09-20T10:51:29.756Z,22.37
2022-09-20T10:54:02.709Z,22.40
2022-09-20T10:56:35.746Z,22.42
2022-09-20T10:59:08.923Z,22.44
2022-09-20T11:01:47.901Z,22.46
2022-09-20T11:04:20.778Z,22.49
2022-09-20T11:07:07.953Z,22.51
2022-09-20T11:09:41.083Z,22.54
2022-09-20T11:12:14.112Z,22.56
2022-09-20T11:14:47.017Z,22.58
2022-09-20T11:17:20.040Z,22.60
2022-09-20T11:19:53.084Z,22.62
2022-09-20T11:22:26.079Z,22.64
2022-09-20T11:24:59.054Z,22.66
2022-09-20T11:27:31.756Z,22.68
2022-09-20T11:30:05.064Z,22.70
2022-09-20T11:32:37.915Z,22.71
2022-09-20T11:35:11.061Z,22.74
2022-09-20T11:37:44.163Z,22.76
2022-09-20T11:40:17.142Z,22.78
2022-09-20T11:42:49.922Z,22.80
2022-09-20T11:45:28.116Z,22.82
2022-09-20T11:47:56.061Z,22.84
2022-09-20T11:50:28.798Z,22.86
2022-09-20T11:53:02.148Z,22.88
2022-09-20T11:55:41.080Z,22.90
2022-09-20T11:58:14.081Z,22.91
2022-09-20T12:00:47.199Z,22.93
2022-09-20T12:03:20.197Z,22.94
2022-09-20T12:05:53.130Z,22.96
2022-09-20T12:08:26.137Z,22.97
2022-09-20T12:10:58.827Z,22.98
2022-09-20T12:13:32.134Z,22.98
2022-09-20T12:16:05.192Z,22.99
2022-09-20T12:18:38.209Z,23.00
2022-09-20T12:21:15.244Z,23.01
2022-09-20T12:23:44.136Z,23.02
2022-09-20T12:26:16.838Z,23.02
2022-09-20T12:28:50.001Z,23.03
2022-09-20T12:31:23.270Z,23.04
2022-09-20T12:33:55.842Z,23.05
2022-09-20T12:36:29.126Z,23.06
2022-09-20T12:39:02.127Z,23.07
2022-09-20T12:41:35.090Z,23.08
2022-09-20T12:44:08.185Z,23.10
2022-09-20T12:46:41.252Z,23.12
2022-09-20T12:49:14.172Z,23.14
2022-09-20T12:51:47.145Z,23.16
2022-09-20T12:54:20.243Z,23.17
2022-09-20T12:56:53.253Z,23.18
2022-09-20T12:59:25.885Z,23.19
2022-09-20T13:01:59.250Z,23.20
2022-09-20T13:04:32.185Z,23.21
2022-09-20T13:07:05.171Z,23.21
2022-09-20T13:09:38.027Z,23.21
2022-09-20T13:12:10.913Z,23.22
2022-09-20T13:14:44.200Z,23.23
2022-09-20T13:17:17.211Z,23.23
2022-09-20T13:19:50.291Z,23.24
2022-09-20T13:22:23.235Z,23.24
2022-09-20T13:24:56.225Z,23.25
2022-09-20T13:27:29.233Z,23.25
2022-09-20T13:30:02.218Z,23.26
2022-09-20T13:32:35.233Z,23.26
2022-09-20T13:35:08.322Z,23.27
2022-09-20T13:37:41.217Z,23.28
2022-09-20T13:40:14.293Z,23.28
2022-09-20T13:42:47.294Z,23.29
2022-09-20T13:45:20.290Z,23.30
2022-09-20T13:47:53.311Z,23.31
2022-09-20T13:50:26.265Z,23.32
2022-09-20T13:52:59.296Z,23.33
2022-09-20T13:55:32.313Z,23.33
2022-09-20T13:58:05.267Z,23.34
2022-09-20T14:00:44.256Z,23.35
2022-09-20T14:03:17.367Z,23.36
2022-09-20T14:05:50.308Z,23.37
2022-09-20T14:08:23.347Z,23.40
2022-09-20T14:10:56.292Z,23.43
2022-09-20T14:13:29.305Z,23.48
2022-09-20T14:16:02.284Z,23.53
2022-09-20T14:18:35.299Z,23.58
2022-09-20T14:21:08.363Z,23.62
2022-09-20T14:23:41.366Z,23.66
2022-09-20T14:26:14.331Z,23.69
2022-09-20T14:28:47.376Z,23.72
2022-09-20T14:31:20.311Z,23.74
2022-09-20T14:33:55.294Z,23.76
2022-09-20T14:36:26.024Z,23.77
2022-09-20T14:38:59.052Z,23.77
2022-09-20T14:41:32.342Z,23.78
2022-09-20T14:44:05.307Z,23.78
2022-09-20T14:46:38.188Z,23.79
2022-09-20T14:49:11.094Z,23.82
2022-09-20T14:51:45.269Z,23.85
2022-09-20T14:54:18.312Z,23.86
2022-09-20T14:56:51.156Z,23.86
2022-09-20T14:59:24.154Z,23.86
2022-09-20T15:01:57.064Z,23.85
2022-09-20T15:04:30.099Z,23.83
2022-09-20T15:07:03.344Z,23.82
2022-09-20T15:09:36.145Z,23.81
2022-09-20T15:12:09.126Z,23.80
2022-09-20T15:14:42.215Z,23.79
2022-09-20T15:17:15.129Z,23.78
2022-09-20T15:19:48.182Z,23.78
2022-09-20T15:22:21.257Z,23.77
2022-09-20T15:24:54.124Z,23.76
2022-09-20T15:27:28.472Z,23.76
2022-09-20T15:30:00.119Z,23.76
2022-09-20T15:32:33.146Z,23.75
2022-09-20T15:35:06.309Z,23.75
2022-09-20T15:37:39.229Z,23.75
2022-09-20T15:40:12.223Z,23.75
2022-09-20T15:42:45.522Z,23.74
2022-09-20T15:45:18.390Z,23.74
2022-09-20T15:47:51.519Z,23.74
2022-09-20T15:50:24.142Z,23.73
2022-09-20T15:52:59.925Z,23.71
2022-09-20T15:55:30.165Z,23.70
2022-09-20T15:58:03.252Z,23.69
2022-09-20T16:00:36.281Z,23.67
2022-09-20T16:03:09.150Z,23.66
2022-09-20T16:05:42.260Z,23.65
2022-09-20T16:08:15.169Z,23.64
2022-09-20T16:10:50.243Z,23.63
2022-09-20T16:13:23.575Z,23.62
2022-09-20T16:15:56.426Z,23.61
2022-09-20T16:18:29.566Z,23.60
2022-09-20T16:21:02.216Z,23.59
2022-09-20T16:23:35.516Z,23.59
2022-09-20T16:26:08.305Z,23.58
2022-09-20T16:28:55.361Z,23.58
2022-09-20T16:31:28.228Z,23.58
2022-09-20T16:34:01.218Z,23.58
2022-09-20T16:36:34.581Z,23.58
2022-09-20T16:39:07.435Z,23.58
2022-09-20T16:41:40.311Z,23.58
2022-09-20T16:44:13.582Z,23.57
2022-09-20T16:46:50.466Z,23.57
2022-09-20T16:49:23.343Z,23.56
2022-09-20T16:51:56.497Z,23.56
2022-09-20T16:54:32.297Z,23.56
2022-09-20T16:57:05.518Z,23.55
2022-09-20T16:59:38.318Z,23.55
2022-09-20T17:02:11.419Z,23.54
2022-09-20T17:04:44.651Z,23.54
2022-09-20T17:07:17.343Z,23.54
2022-09-20T17:09:50.255Z,23.53
2022-09-20T17:12:29.250Z,23.52
2022-09-20T17:15:02.435Z,23.51
2022-09-20T17:17:35.401Z,23.49
2022-09-20T17:20:08.331Z,23.48
2022-09-20T17:22:41.429Z,23.48
2022-09-20T17:25:14.273Z,23.47
2022-09-20T17:27:47.425Z,23.47
2022-09-20T17:30:20.428Z,23.46
2022-09-20T17:32:53.437Z,23.46
2022-09-20T17:35:26.302Z,23.46
2022-09-20T17:37:59.357Z,23.46
2022-09-20T17:40:32.336Z,23.46
2022-09-20T17:43:05.584Z,23.46
2022-09-20T17:45:38.766Z,23.46
2022-09-20T17:48:11.299Z,23.46
2022-09-20T17:50:44.472Z,23.46
2022-09-20T17:53:17.330Z,23.46
2022-09-20T17:55:50.675Z,23.46
2022-09-20T17:58:23.454Z,23.46
2022-09-20T18:00:56.839Z,23.46
2022-09-20T18:03:29.545Z,23.46
2022-09-20T18:06:02.696Z,23.46
2022-09-20T18:08:35.600Z,23.45
2022-09-20T18:11:08.605Z,23.45
2022-09-20T18:13:41.710Z,23.45
2022-09-20T18:16:14.664Z,23.45
2022-09-20T18:18:47.535Z,23.45
2022-09-20T18:21:20.718Z,23.44
2022-09-20T18:23:53.503Z,23.44
2022-09-20T18:26:26.404Z,23.44
2022-09-20T18:28:59.515Z,23.44
2022-09-20T18:31:32.577Z,23.44
2022-09-20T18:34:05.449Z,23.44
2022-09-20T18:36:38.542Z,23.44
2022-09-20T18:39:11.383Z,23.44
2022-09-20T18:41:44.796Z,23.43
2022-09-20T18:44:17.678Z,23.43
2022-09-20T18:46:50.441Z,23.43
2022-09-20T18:49:23.467Z,23.43
2022-09-20T18:51:56.463Z,23.43
2022-09-20T18:54:29.638Z,23.43
2022-09-20T18:57:02.899Z,23.42
2022-09-20T18:59:36.827Z,23.42
2022-09-20T19:02:09.618Z,23.42
2022-09-20T19:04:42.553Z,23.42
2022-09-20T19:07:15.705Z,23.42
2022-09-20T19:09:48.585Z,23.42
2022-09-20T19:12:21.752Z,23.42
2022-09-20T19:14:54.721Z,23.41
2022-09-20T19:17:27.794Z,23.41
2022-09-20T19:20:00.661Z,23.41
2022-09-20T19:22:33.620Z,23.41
2022-09-20T19:25:06.799Z,23.41
2022-09-20T19:27:39.791Z,23.41
2022-09-20T19:30:12.822Z,23.41
2022-09-20T19:32:45.843Z,23.41
2022-09-20T19:35:18.880Z,23.40
2022-09-20T19:37:51.772Z,23.40
2022-09-20T19:40:24.861Z,23.40
2022-09-20T19:42:57.634Z,23.40
2022-09-20T19:45:30.591Z,23.40
2022-09-20T19:48:03.557Z,23.40
2022-09-20T19:50:42.498Z,23.39
2022-09-20T19:53:15.484Z,23.39
2022-09-20T19:55:48.625Z,23.39
2022-09-20T19:58:21.604Z,23.39
2022-09-20T20:00:54.731Z,23.39
2022-09-20T20:03:27.593Z,23.39
2022-09-20T20:06:04.450Z,23.39
2022-09-20T20:08:33.605Z,23.39
2022-09-20T20:11:06.909Z,23.39
2022-09-20T20:13:39.614Z,23.40
2022-09-20T20:16:12.579Z,23.40
2022-09-20T20:18:45.583Z,23.40
2022-09-20T20:21:18.656Z,23.40
2022-09-20T20:23:51.648Z,23.40
2022-09-20T20:26:24.564Z,23.40
2022-09-20T20:28:57.689Z,23.40
2022-09-20T20:31:31.067Z,23.40
2022-09-20T20:34:04.944Z,23.40
2022-09-20T20:36:37.842Z,23.40
2022-09-20T20:39:11.067Z,23.40
2022-09-20T20:41:44.942Z,23.40
2022-09-20T20:44:17.850Z,23.40
2022-09-20T20:46:50.955Z,23.40
2022-09-20T20:49:24.095Z,23.40
2022-09-20T20:51:57.901Z,23.39
2022-09-20T20:54:30.954Z,23.39
2022-09-20T20:57:03.752Z,23.39
2022-09-20T20:59:36.944Z,23.38
2022-09-20T21:02:09.689Z,23.37
2022-09-20T21:04:42.588Z,23.37
2022-09-20T21:07:15.690Z,23.36
2022-09-20T21:09:48.586Z,23.35
2022-09-20T21:12:21.769Z,23.35
2022-09-20T21:14:54.640Z,23.34
2022-09-20T21:17:30.532Z,23.33
2022-09-20T21:20:00.928Z,23.32
2022-09-20T21:22:33.886Z,23.30
2022-09-20T21:25:06.898Z,23.29
2022-09-20T21:30:29.974Z,23.27
2022-09-20T21:33:02.975Z,23.25
2022-09-20T21:35:36.042Z,23.24
2022-09-20T21:38:08.775Z,23.23
2022-09-20T21:40:41.667Z,23.21
2022-09-20T21:43:14.907Z,23.20
2022-09-20T21:45:48.097Z,23.18
2022-09-20T21:48:21.000Z,23.17
2022-09-20T21:50:53.927Z,23.16
2022-09-20T21:53:26.972Z,23.14
2022-09-20T21:55:59.665Z,23.13
2022-09-20T21:58:32.968Z,23.11
2022-09-20T22:01:06.094Z,23.10
2022-09-20T22:03:38.969Z,23.09
2022-09-20T22:06:11.741Z,23.08
2022-09-20T22:08:44.964Z,23.06
2022-09-20T22:11:17.964Z,23.05
2022-09-20T22:13:50.941Z,23.04
2022-09-20T22:16:24.053Z,23.03
2022-09-20T22:18:57.214Z,23.01
2022-09-20T22:21:30.050Z,23.00
2022-09-20T22:24:03.002Z,22.99
2022-09-20T22:26:35.988Z,22.98
2022-09-20T22:29:08.998Z,22.97
2022-09-20T22:31:42.098Z,22.96
2022-09-20T22:34:15.071Z,22.95
2022-09-20T22:36:48.103Z,22.93
2022-09-20T22:39:21.090Z,22.92
2022-09-20T22:41:54.058Z,22.91
2022-09-20T22:44:26.986Z,22.90
2022-09-20T22:47:00.137Z,22.88
2022-09-20T22:49:33.071Z,22.87
2022-09-20T22:52:06.051Z,22.87
2022-09-20T22:54:39.107Z,22.86
2022-09-20T22:57:11.741Z,22.85
2022-09-20T22:59:45.043Z,22.84
2022-09-20T23:02:18.126Z,22.83
2022-09-20T23:04:51.072Z,22.82
2022-09-20T23:07:24.152Z,22.81
2022-09-20T23:09:57.084Z,22.80
2022-09-20T23:12:30.135Z,22.79
2022-09-20T23:15:02.898Z,22.78
2022-09-20T23:17:50.118Z,22.77
2022-09-20T23:20:23.091Z,22.76
2022-09-20T23:22:56.204Z,22.75
2022-09-20T23:25:29.058Z,22.74
2022-09-20T23:28:02.198Z,22.73
2022-09-20T23:30:35.189Z,22.72
2022-09-20T23:33:08.119Z,22.71
2022-09-20T23:35:41.171Z,22.70
2022-09-20T23:38:14.121Z,22.69
2022-09-20T23:40:46.919Z,22.68
2022-09-20T23:43:20.195Z,22.67
2022-09-20T23:45:53.103Z,22.66
2022-09-20T23:48:26.158Z,22.65
2022-09-20T23:50:59.143Z,22.64
2022-09-20T23:53:32.250Z,22.63
2022-09-20T23:56:05.043Z,22.62
2022-09-20T23:58:38.221Z,22.61
